Dutch Harbor, Alaska
Current Conditions -  °F | °C
As of 9:56 PM on Thursday 30 Oct 2014 (Local Time) from PADU Reporting Station
Broken Clouds Broken Clouds  
Wind Chill: 53°   Ceiling: 6000
Heat Index: 53°   Visibility: 10mi
Dew Point: 40°   Wind: 13mph
Humidity: 61%   Direction: 210°SSW
Pressure: 29.05"   Gusts: 20mph
Location:  53.51°N, 167.06°W
Report Text: PADU 310556Z AUTO 21011G17KT 10SM FEW018 SCT043 BKN060 12/04 A2905 RMK AO2 PK WND 22027/0532 RAB0459E49 SLP841 P0000 60016 T01170044 10117 20078 56075
Loading
Personal Weather Stations






























Interactive Weather Map
Tropical Storm Tracking
New forecast layout! Learn more

10-Day Weather Forecast

Advertisements
Track Severe Weather on mobile